Wetterdaten: Freitag, 14.06.2013
Datum Zeit Temperatur Luftfeuchte Luftdruck Regen Wind Richtung Richtung Taupunkt Windchill Windben
14.06.2013 00:00 14,4 C 76 % 1019,0 hPa 0,0 l/m 0,0 km/h (0 Bft) SW 225 10,2 C 14,7 C 0,0 km/h (0 Bft)
14.06.2013 00:05 14,4 C 77 % 1019,0 hPa 0,0 l/m 0,0 km/h (0 Bft) N-NO 22 10,4 C 14,5 C 0,0 km/h (0 Bft)
14.06.2013 00:10 14,1 C 77 % 1019,0 hPa 0,0 l/m 0,0 km/h (0 Bft) N-NO 22 10,1 C 14,4 C 0,0 km/h (0 Bft)
14.06.2013 00:15 14,3 C 78 % 1019,0 hPa 0,0 l/m 0,3 km/h (0 Bft) NO 45 10,5 C 14,3 C 0,0 km/h (0 Bft)
14.06.2013 00:20 14,1 C 78 % 1019,0 hPa 0,0 l/m 0,5 km/h (0 Bft) N-NO 22 10,3 C 14,4 C 0,0 km/h (0 Bft)
14.06.2013 00:25 14,4 C 79 % 1019,2 hPa 0,0 l/m 0,2 km/h (0 Bft) O-SO 112 10,8 C 14,5 C 0,0 km/h (0 Bft)
14.06.2013 00:30 14,7 C 79 % 1019,2 hPa 0,0 l/m 0,2 km/h (0 Bft) NW 315 11,1 C 14,9 C 0,0 km/h (0 Bft)
14.06.2013 00:35 15,1 C 80 % 1019,2 hPa 0,0 l/m 0,3 km/h (0 Bft) N 360 11,7 C 15,0 C 0,0 km/h (0 Bft)
14.06.2013 00:40 15,2 C 78 % 1019,2 hPa 0,0 l/m 0,5 km/h (0 Bft) N-NO 22 11,4 C 15,3 C 0,0 km/h (0 Bft)
14.06.2013 00:45 15,3 C 79 % 1019,4 hPa 0,0 l/m 0,8 km/h (0 Bft) N-NW 337 11,7 C 15,5 C 6,4 km/h (2 Bft)
14.06.2013 00:50 17,3 C 77 % 1019,4 hPa 0,0 l/m 7,1 km/h (2 Bft) O-SO 112 13,2 C 15,9 C 30,4 km/h (5 Bft)
14.06.2013 00:55 17,7 C 76 % 1019,4 hPa 0,0 l/m 12,4 km/h (3 Bft) S-SO 157 13,4 C 14,4 C 22,4 km/h (4 Bft)
14.06.2013 01:00 17,6 C 76 % 1019,4 hPa 0,0 l/m 12,2 km/h (2 Bft) S 180 13,3 C 15,2 C 14,6 km/h (3 Bft)
14.06.2013 01:05 17,4 C 77 % 1021,1 hPa 0,0 l/m 11,3 km/h (2 Bft) S 180 13,3 C 15,6 C 14,3 km/h (3 Bft)
14.06.2013 01:10 17,1 C 79 % 1021,1 hPa 0,0 l/m 9,2 km/h (2 Bft) O 90 13,4 C 16,2 C 11,9 km/h (2 Bft)
14.06.2013 01:15 16,7 C 80 % 1021,1 hPa 0,0 l/m 10,1 km/h (2 Bft) S 180 13,2 C 15,4 C 17,9 km/h (3 Bft)
14.06.2013 01:20 15,1 C 87 % 1021,1 hPa 0,7 l/m 13,4 km/h (3 Bft) S-SO 157 13,0 C 11,9 C 21,6 km/h (4 Bft)
14.06.2013 01:25 14,6 C 88 % 1022,5 hPa 0,7 l/m 13,8 km/h (3 Bft) S 180 12,6 C 10,6 C 13,5 km/h (3 Bft)
14.06.2013 01:30 13,9 C 89 % 1022,5 hPa 1,4 l/m 14,3 km/h (3 Bft) S-SW 202 12,1 C 9,3 C 12,4 km/h (3 Bft)
14.06.2013 01:35 13,5 C 90 % 1022,5 hPa 1,4 l/m 14,3 km/h (3 Bft) S 180 11,9 C 8,6 C 19,0 km/h (3 Bft)
14.06.2013 01:40 13,4 C 90 % 1022,5 hPa 0,0 l/m 13,0 km/h (3 Bft) S 180 11,8 C 8,8 C 31,7 km/h (5 Bft)
14.06.2013 01:45 13,4 C 91 % 1022,9 hPa 0,0 l/m 10,8 km/h (2 Bft) W-SW 247 12,0 C 10,1 C 10,3 km/h (2 Bft)
14.06.2013 01:50 13,2 C 91 % 1022,9 hPa 0,0 l/m 10,8 km/h (2 Bft) SW 225 11,8 C 9,8 C 27,5 km/h (4 Bft)
14.06.2013 01:55 13,1 C 91 % 1022,9 hPa 0,0 l/m 13,0 km/h (3 Bft) S-SO 157 11,7 C 8,5 C 23,0 km/h (4 Bft)
14.06.2013 02:00 12,8 C 93 % 1022,9 hPa 0,7 l/m 14,5 km/h (3 Bft) O-SO 112 11,7 C 7,4 C 10,5 km/h (2 Bft)
14.06.2013 02:05 12,8 C 93 % 1023,2 hPa 0,0 l/m 12,9 km/h (3 Bft) S-SW 202 11,7 C 7,9 C 16,1 km/h (3 Bft)
14.06.2013 02:10 12,7 C 93 % 1023,2 hPa 0,0 l/m 9,0 km/h (2 Bft) S-SW 202 11,6 C 10,5 C 8,9 km/h (2 Bft)
14.06.2013 02:15 12,7 C 93 % 1023,2 hPa 0,0 l/m 7,9 km/h (2 Bft) S 180 11,6 C 11,2 C 6,1 km/h (2 Bft)
14.06.2013 02:20 12,8 C 93 % 1023,2 hPa 0,7 l/m 7,4 km/h (2 Bft) S 180 11,7 C 11,6 C 7,1 km/h (2 Bft)
14.06.2013 02:25 12,8 C 93 % 1023,3 hPa 0,0 l/m 6,4 km/h (2 Bft) SO 135 11,7 C 12,5 C 8,4 km/h (2 Bft)
14.06.2013 02:30 12,7 C 94 % 1023,3 hPa 0,0 l/m 5,5 km/h (1 Bft) S 180 11,8 C 12,7 C 6,0 km/h (2 Bft)
14.06.2013 02:35 12,7 C 94 % 1023,3 hPa 0,0 l/m 5,5 km/h (1 Bft) S-SO 157 11,8 C 12,7 C 5,1 km/h (1 Bft)
14.06.2013 02:40 12,6 C 94 % 1023,3 hPa 0,0 l/m 5,6 km/h (1 Bft) S 180 11,7 C 12,7 C 6,6 km/h (2 Bft)
14.06.2013 02:45 12,5 C 94 % 1023,4 hPa 0,0 l/m 5,3 km/h (1 Bft) S-SO 157 11,6 C 12,6 C 6,3 km/h (2 Bft)
14.06.2013 02:50 12,4 C 94 % 1023,4 hPa 0,0 l/m 5,6 km/h (1 Bft) S-SW 202 11,5 C 12,4 C 7,2 km/h (2 Bft)
14.06.2013 02:55 12,3 C 94 % 1023,4 hPa 0,0 l/m 6,8 km/h (2 Bft) S 180 11,4 C 11,8 C 3,2 km/h (1 Bft)
14.06.2013 03:00 12,3 C 94 % 1023,4 hPa 0,0 l/m 6,4 km/h (2 Bft) W-SW 247 11,4 C 12,1 C 1,9 km/h (1 Bft)
14.06.2013 03:05 12,3 C 94 % 1023,4 hPa 0,0 l/m 4,8 km/h (1 Bft) NO 45 11,4 C 12,3 C 4,5 km/h (1 Bft)
14.06.2013 03:10 12,3 C 94 % 1023,4 hPa 0,0 l/m 2,9 km/h (1 Bft) O 90 11,4 C 12,3 C 4,8 km/h (1 Bft)
14.06.2013 03:15 12,3 C 94 % 1023,4 hPa 0,7 l/m 3,2 km/h (1 Bft) S-SW 202 11,4 C 12,3 C 7,6 km/h (2 Bft)
14.06.2013 03:20 12,3 C 94 % 1023,4 hPa 0,0 l/m 3,7 km/h (1 Bft) SO 135 11,4 C 12,3 C 2,4 km/h (1 Bft)
14.06.2013 03:25 12,3 C 94 % 1023,4 hPa 0,0 l/m 3,1 km/h (1 Bft) O-SO 112 11,4 C 12,3 C 1,9 km/h (1 Bft)
14.06.2013 03:30 12,3 C 94 % 1023,4 hPa 0,0 l/m 1,8 km/h (1 Bft) SO 135 11,4 C 12,3 C 2,9 km/h (1 Bft)
14.06.2013 03:35 12,3 C 94 % 1023,4 hPa 0,0 l/m 1,1 km/h (1 Bft) O 90 11,4 C 12,3 C 2,1 km/h (1 Bft)
14.06.2013 03:40 12,3 C 94 % 1023,4 hPa 0,0 l/m 1,4 km/h (1 Bft) NO 45 11,4 C 12,3 C 0,0 km/h (0 Bft)
14.06.2013 03:45 12,4 C 94 % 1023,6 hPa 0,0 l/m 2,3 km/h (1 Bft) S 180 11,5 C 12,4 C 3,7 km/h (1 Bft)
14.06.2013 03:50 12,4 C 95 % 1023,6 hPa 0,0 l/m 2,7 km/h (1 Bft) S-SO 157 11,6 C 12,4 C 5,3 km/h (1 Bft)
14.06.2013 03:55 12,4 C 95 % 1023,6 hPa 0,0 l/m 3,2 km/h (1 Bft) S-SO 157 11,6 C 12,4 C 4,8 km/h (1 Bft)
14.06.2013 04:00 12,4 C 95 % 1023,6 hPa 0,0 l/m 3,4 km/h (1 Bft) SO 135 11,6 C 12,4 C 7,7 km/h (2 Bft)
14.06.2013 04:05 12,3 C 95 % 1023,4 hPa 0,0 l/m 3,4 km/h (1 Bft) SO 135 11,5 C 12,4 C 7,4 km/h (2 Bft)
14.06.2013 04:11 12,3 C 95 % 1023,4 hPa 0,0 l/m 4,5 km/h (1 Bft) S-SO 157 11,5 C 12,4 C 3,7 km/h (1 Bft)
14.06.2013 04:15 12,2 C 95 % 1023,4 hPa 0,0 l/m 4,5 km/h (1 Bft) SW 225 11,4 C 12,4 C 2,4 km/h (1 Bft)
14.06.2013 04:20 12,2 C 95 % 1023,4 hPa 0,0 l/m 4,2 km/h (1 Bft) S-SW 202 11,4 C 12,4 C 2,3 km/h (1 Bft)
14.06.2013 04:25 12,2 C 95 % 1023,5 hPa 0,0 l/m 3,9 km/h (1 Bft) SW 225 11,4 C 12,4 C 3,5 km/h (1 Bft)
14.06.2013 04:30 12,2 C 95 % 1023,5 hPa 0,0 l/m 2,9 km/h (1 Bft) S 180 11,4 C 12,3 C 3,2 km/h (1 Bft)
14.06.2013 04:35 12,1 C 95 % 1023,5 hPa 0,0 l/m 3,2 km/h (1 Bft) S 180 11,3 C 12,2 C 3,2 km/h (1 Bft)
14.06.2013 04:40 12,1 C 95 % 1023,5 hPa 0,0 l/m 2,7 km/h (1 Bft) O-NO 67 11,3 C 12,2 C 0,0 km/h (0 Bft)
14.06.2013 04:45 12,1 C 95 % 1023,4 hPa 0,0 l/m 1,6 km/h (1 Bft) O-SO 112 11,3 C 12,2 C 0,0 km/h (0 Bft)
14.06.2013 04:50 12,1 C 95 % 1023,4 hPa 0,0 l/m 0,5 km/h (0 Bft) SO 135 11,3 C 12,2 C 0,0 km/h (0 Bft)
14.06.2013 04:55 12,1 C 95 % 1023,4 hPa 0,0 l/m 1,0 km/h (0 Bft) O-SO 112 11,3 C 12,1 C 1,8 km/h (1 Bft)
14.06.2013 05:00 12,0 C 95 % 1023,4 hPa 0,0 l/m 1,4 km/h (1 Bft) SO 135 11,2 C 12,1 C 3,2 km/h (1 Bft)
14.06.2013 05:05 12,0 C 95 % 1023,4 hPa 0,0 l/m 2,3 km/h (1 Bft) S-SW 202 11,2 C 12,1 C 3,7 km/h (1 Bft)
14.06.2013 05:10 12,0 C 95 % 1023,4 hPa 0,0 l/m 3,2 km/h (1 Bft) SO 135 11,2 C 12,0 C 4,2 km/h (1 Bft)
14.06.2013 05:15 11,9 C 95 % 1023,4 hPa 0,0 l/m 2,1 km/h (1 Bft) O-SO 112 11,1 C 12,0 C 1,6 km/h (1 Bft)
14.06.2013 05:20 11,9 C 95 % 1023,4 hPa 0,0 l/m 0,5 km/h (0 Bft) S-SW 202 11,1 C 12,0 C 0,0 km/h (0 Bft)
14.06.2013 05:25 11,9 C 95 % 1023,3 hPa 0,0 l/m 0,3 km/h (0 Bft) SO 135 11,1 C 12,0 C 0,0 km/h (0 Bft)
14.06.2013 05:30 11,9 C 95 % 1023,3 hPa 0,0 l/m 0,3 km/h (0 Bft) SO 135 11,1 C 12,0 C 0,0 km/h (0 Bft)
14.06.2013 05:35 11,9 C 95 % 1023,3 hPa 0,0 l/m 0,2 km/h (0 Bft) SO 135 11,1 C 12,0 C 0,0 km/h (0 Bft)
14.06.2013 05:40 12,0 C 95 % 1023,3 hPa 0,0 l/m 0,3 km/h (0 Bft) S 180 11,2 C 12,1 C 2,3 km/h (1 Bft)
14.06.2013 05:45 12,0 C 95 % 1023,5 hPa 0,0 l/m 0,3 km/h (0 Bft) O 90 11,2 C 12,1 C 2,4 km/h (1 Bft)
14.06.2013 05:50 12,0 C 95 % 1023,5 hPa 0,0 l/m 1,1 km/h (1 Bft) S-SW 202 11,2 C 12,1 C 3,9 km/h (1 Bft)
14.06.2013 05:55 11,9 C 95 % 1023,5 hPa 0,0 l/m 1,8 km/h (1 Bft) S 180 11,1 C 12,1 C 4,5 km/h (1 Bft)
14.06.2013 06:00 11,9 C 95 % 1023,5 hPa 0,0 l/m 2,4 km/h (1 Bft) S 180 11,1 C 12,1 C 2,6 km/h (1 Bft)
14.06.2013 06:05 11,9 C 95 % 1023,6 hPa 0,0 l/m 1,8 km/h (1 Bft) S 180 11,1 C 12,1 C 1,8 km/h (1 Bft)
14.06.2013 06:10 11,9 C 95 % 1023,6 hPa 0,0 l/m 1,4 km/h (1 Bft) S-SW 202 11,1 C 12,1 C 1,9 km/h (1 Bft)
14.06.2013 06:15 12,0 C 95 % 1023,6 hPa 0,0 l/m 1,4 km/h (1 Bft) S 180 11,2 C 12,1 C 0,0 km/h (0 Bft)
14.06.2013 06:20 11,8 C 95 % 1023,6 hPa 0,0 l/m 2,6 km/h (1 Bft) S 180 11,0 C 12,0 C 6,0 km/h (2 Bft)
14.06.2013 06:25 11,7 C 95 % 1023,6 hPa 0,0 l/m 4,3 km/h (1 Bft) S-SW 202 10,9 C 12,0 C 5,1 km/h (1 Bft)
14.06.2013 06:30 11,6 C 95 % 1023,6 hPa 0,0 l/m 5,6 km/h (1 Bft) N 360 10,8 C 11,8 C 4,7 km/h (1 Bft)
14.06.2013 06:35 11,6 C 95 % 1023,6 hPa 0,0 l/m 4,8 km/h (1 Bft) S 180 10,8 C 11,8 C 6,4 km/h (2 Bft)
14.06.2013 06:40 11,5 C 95 % 1023,6 hPa 0,7 l/m 4,2 km/h (1 Bft) S 180 10,7 C 11,7 C 8,7 km/h (2 Bft)
14.06.2013 06:45 11,5 C 95 % 1023,9 hPa 0,0 l/m 4,5 km/h (1 Bft) S-SO 157 10,7 C 11,5 C 4,0 km/h (1 Bft)
14.06.2013 06:50 11,4 C 95 % 1023,9 hPa 0,0 l/m 4,3 km/h (1 Bft) S 180 10,6 C 11,5 C 3,7 km/h (1 Bft)
14.06.2013 06:55 11,4 C 95 % 1023,9 hPa 0,0 l/m 3,2 km/h (1 Bft) S-SW 202 10,6 C 11,4 C 2,9 km/h (1 Bft)
14.06.2013 07:00 11,1 C 95 % 1023,9 hPa 0,0 l/m 4,3 km/h (1 Bft) W-SW 247 10,3 C 11,3 C 9,2 km/h (2 Bft)
14.06.2013 07:05 10,9 C 95 % 1024,2 hPa 0,0 l/m 5,5 km/h (1 Bft) W-SW 247 10,1 C 10,9 C 9,3 km/h (2 Bft)
14.06.2013 07:10 10,6 C 95 % 1024,2 hPa 0,0 l/m 6,1 km/h (2 Bft) W-SW 247 9,8 C 10,3 C 8,9 km/h (2 Bft)
14.06.2013 07:15 10,5 C 95 % 1024,2 hPa 0,0 l/m 5,5 km/h (1 Bft) W-SW 247 9,7 C 10,3 C 6,1 km/h (2 Bft)
14.06.2013 07:20 10,5 C 95 % 1024,2 hPa 0,0 l/m 4,3 km/h (1 Bft) SW 225 9,7 C 10,5 C 1,9 km/h (1 Bft)
14.06.2013 07:25 10,5 C 95 % 1024,3 hPa 0,0 l/m 3,1 km/h (1 Bft) S 180 9,7 C 10,5 C 2,3 km/h (1 Bft)
14.06.2013 07:30 10,6 C 95 % 1024,3 hPa 0,0 l/m 1,3 km/h (1 Bft) S-SO 157 9,8 C 10,5 C 0,0 km/h (0 Bft)
14.06.2013 07:35 10,6 C 95 % 1024,3 hPa 0,0 l/m 1,6 km/h (1 Bft) S 180 9,8 C 10,5 C 3,2 km/h (1 Bft)
14.06.2013 07:40 10,6 C 95 % 1024,3 hPa 0,7 l/m 2,4 km/h (1 Bft) SO 135 9,8 C 10,5 C 4,7 km/h (1 Bft)
14.06.2013 07:45 10,6 C 95 % 1024,4 hPa 0,0 l/m 2,4 km/h (1 Bft) W-SW 247 9,8 C 10,5 C 1,8 km/h (1 Bft)
14.06.2013 07:50 10,3 C 95 % 1024,4 hPa 0,0 l/m 3,4 km/h (1 Bft) W-NW 292 9,5 C 10,5 C 3,1 km/h (1 Bft)
14.06.2013 07:55 10,0 C 95 % 1024,4 hPa 0,0 l/m 5,0 km/h (1 Bft) S-SW 202 9,2 C 10,1 C 8,5 km/h (2 Bft)
14.06.2013 08:00 9,8 C 95 % 1024,4 hPa 0,0 l/m 5,8 km/h (2 Bft) S-SW 202 9,0 C 9,4 C 2,3 km/h (1 Bft)
14.06.2013 08:05 9,6 C 95 % 1024,7 hPa 0,7 l/m 5,3 km/h (1 Bft) SW 225 8,8 C 9,4 C 4,8 km/h (1 Bft)
14.06.2013 08:10 9,0 C 95 % 1024,7 hPa 0,0 l/m 5,1 km/h (1 Bft) W-NW 292 8,2 C 9,0 C 6,0 km/h (2 Bft)
14.06.2013 08:15 8,9 C 95 % 1024,7 hPa 0,0 l/m 5,0 km/h (1 Bft) W-SW 247 8,1 C 8,7 C 3,5 km/h (1 Bft)
14.06.2013 08:20 8,9 C 95 % 1024,7 hPa 0,0 l/m 3,5 km/h (1 Bft) S 180 8,1 C 8,9 C 2,6 km/h (1 Bft)
14.06.2013 08:25 8,9 C 95 % 1025,1 hPa 0,0 l/m 2,9 km/h (1 Bft) W-SW 247 8,1 C 8,8 C 1,6 km/h (1 Bft)
14.06.2013 08:30 9,0 C 95 % 1025,1 hPa 0,0 l/m 2,3 km/h (1 Bft) W-SW 247 8,2 C 8,8 C 0,0 km/h (0 Bft)
14.06.2013 08:35 9,1 C 94 % 1025,1 hPa 0,0 l/m 1,3 km/h (1 Bft) S-SW 202 8,2 C 9,0 C 0,0 km/h (0 Bft)
14.06.2013 08:40 9,2 C 95 % 1025,1 hPa 0,0 l/m 0,6 km/h (0 Bft) W-SW 247 8,4 C 9,2 C 0,0 km/h (0 Bft)
14.06.2013 08:45 9,1 C 95 % 1025,1 hPa 0,0 l/m 0,6 km/h (0 Bft) S 180 8,3 C 9,2 C 0,0 km/h (0 Bft)
14.06.2013 08:50 9,1 C 94 % 1025,1 hPa 0,0 l/m 0,5 km/h (0 Bft) W-NW 292 8,2 C 9,2 C 0,0 km/h (0 Bft)
14.06.2013 08:55 9,2 C 95 % 1025,1 hPa 0,0 l/m 0,6 km/h (0 Bft) N 360 8,4 C 9,2 C 2,3 km/h (1 Bft)
14.06.2013 09:00 9,0 C 94 % 1025,1 hPa 0,0 l/m 0,6 km/h (0 Bft) NO 45 8,1 C 9,3 C 0,0 km/h (0 Bft)
14.06.2013 09:05 9,1 C 94 % 1025,1 hPa 0,0 l/m 0,8 km/h (0 Bft) O 90 8,2 C 9,4 C 2,3 km/h (1 Bft)
14.06.2013 09:10 9,3 C 94 % 1025,1 hPa 0,0 l/m 0,5 km/h (0 Bft) O-SO 112 8,4 C 9,5 C 0,0 km/h (0 Bft)
14.06.2013 09:15 9,6 C 95 % 1025,1 hPa 0,0 l/m 0,2 km/h (0 Bft) N-NO 22 8,8 C 9,7 C 0,0 km/h (0 Bft)
14.06.2013 09:20 10,2 C 94 % 1025,1 hPa 0,0 l/m 0,0 km/h (0 Bft) O 90 9,3 C 10,3 C 0,0 km/h (0 Bft)
14.06.2013 09:25 10,3 C 95 % 1025,1 hPa 0,0 l/m 0,2 km/h (0 Bft) W 270 9,5 C 10,5 C 1,8 km/h (1 Bft)
14.06.2013 09:30 10,0 C 94 % 1025,1 hPa 0,0 l/m 0,8 km/h (0 Bft) S 180 9,1 C 10,4 C 0,0 km/h (0 Bft)
14.06.2013 09:35 9,9 C 94 % 1025,1 hPa 0,0 l/m 0,8 km/h (0 Bft) W-NW 292 9,0 C 10,4 C 1,9 km/h (1 Bft)
14.06.2013 09:40 9,9 C 94 % 1025,1 hPa 0,0 l/m 0,8 km/h (0 Bft) N-NW 337 9,0 C 10,4 C 3,9 km/h (1 Bft)
14.06.2013 09:45 9,9 C 94 % 1024,6 hPa 0,0 l/m 1,4 km/h (1 Bft) N 360 9,0 C 10,3 C 0,0 km/h (0 Bft)
14.06.2013 09:50 10,4 C 94 % 1024,6 hPa 0,0 l/m 1,1 km/h (1 Bft) N-NO 22 9,5 C 10,7 C 1,6 km/h (1 Bft)
14.06.2013 09:55 10,4 C 94 % 1024,6 hPa 0,0 l/m 0,8 km/h (0 Bft) O 90 9,5 C 11,2 C 2,7 km/h (1 Bft)
14.06.2013 10:00 10,8 C 93 % 1024,6 hPa 0,0 l/m 2,4 km/h (1 Bft) N-NW 337 9,7 C 11,7 C 5,3 km/h (1 Bft)
14.06.2013 10:05 11,2 C 92 % 1024,9 hPa 0,0 l/m 3,1 km/h (1 Bft) NW 315 9,9 C 12,4 C 1,6 km/h (1 Bft)
14.06.2013 10:10 11,0 C 91 % 1024,9 hPa 0,0 l/m 3,7 km/h (1 Bft) W-NW 292 9,6 C 13,1 C 2,1 km/h (1 Bft)
14.06.2013 10:15 11,1 C 90 % 1024,9 hPa 0,0 l/m 3,9 km/h (1 Bft) NO 45 9,5 C 13,1 C 3,2 km/h (1 Bft)
14.06.2013 10:20 10,9 C 90 % 1024,9 hPa 0,0 l/m 3,7 km/h (1 Bft) N-NW 337 9,3 C 13,0 C 5,5 km/h (1 Bft)
14.06.2013 10:25 10,6 C 89 % 1025,1 hPa 0,0 l/m 3,7 km/h (1 Bft) O 90 8,9 C 12,7 C 2,3 km/h (1 Bft)
14.06.2013 10:30 10,9 C 90 % 1025,1 hPa 0,0 l/m 3,4 km/h (1 Bft) N-NW 337 9,3 C 12,4 C 3,5 km/h (1 Bft)
14.06.2013 10:35 10,8 C 89 % 1025,1 hPa 0,0 l/m 2,9 km/h (1 Bft) NW 315 9,1 C 12,3 C 5,5 km/h (1 Bft)
14.06.2013 10:40 10,9 C 89 % 1025,1 hPa 0,0 l/m 2,7 km/h (1 Bft) O 90 9,2 C 12,4 C 6,8 km/h (2 Bft)
14.06.2013 10:45 10,8 C 89 % 1024,8 hPa 0,0 l/m 3,1 km/h (1 Bft) W 270 9,1 C 12,4 C 6,4 km/h (2 Bft)
14.06.2013 10:50 11,1 C 88 % 1024,8 hPa 0,0 l/m 4,0 km/h (1 Bft) O-SO 112 9,2 C 12,3 C 0,0 km/h (0 Bft)
14.06.2013 10:55 11,0 C 86 % 1024,8 hPa 0,0 l/m 3,9 km/h (1 Bft) NO 45 8,7 C 12,7 C 2,9 km/h (1 Bft)
14.06.2013 11:00 11,3 C 87 % 1024,8 hPa 0,0 l/m 2,6 km/h (1 Bft) W-SW 247 9,2 C 13,0 C 3,2 km/h (1 Bft)
14.06.2013 11:05 11,3 C 86 % 1024,5 hPa 0,0 l/m 2,4 km/h (1 Bft) N-NW 337 9,0 C 13,2 C 1,6 km/h (1 Bft)
14.06.2013 11:10 11,1 C 86 % 1024,5 hPa 0,0 l/m 3,4 km/h (1 Bft) N-NW 337 8,8 C 13,1 C 3,1 km/h (1 Bft)
14.06.2013 11:15 11,3 C 87 % 1024,5 hPa 0,0 l/m 3,9 km/h (1 Bft) W-NW 292 9,2 C 13,0 C 7,1 km/h (2 Bft)
14.06.2013 11:20 11,2 C 86 % 1024,5 hPa 0,0 l/m 4,3 km/h (1 Bft) NW 315 8,9 C 12,9 C 3,7 km/h (1 Bft)
14.06.2013 11:25 11,1 C 86 % 1024,4 hPa 0,0 l/m 4,0 km/h (1 Bft) N-NW 337 8,8 C 12,7 C 5,5 km/h (1 Bft)
14.06.2013 11:30 10,9 C 88 % 1024,4 hPa 0,0 l/m 3,4 km/h (1 Bft) N-NW 337 9,0 C 12,3 C 2,4 km/h (1 Bft)
14.06.2013 11:35 10,9 C 88 % 1024,4 hPa 0,0 l/m 4,0 km/h (1 Bft) N 360 9,0 C 12,2 C 5,8 km/h (2 Bft)
14.06.2013 11:40 10,9 C 88 % 1024,4 hPa 0,0 l/m 3,7 km/h (1 Bft) W-NW 292 9,0 C 12,0 C 0,0 km/h (0 Bft)
14.06.2013 11:45 10,9 C 88 % 1023,8 hPa 0,0 l/m 3,7 km/h (1 Bft) W-NW 292 9,0 C 12,0 C 7,2 km/h (2 Bft)
14.06.2013 11:50 10,9 C 89 % 1023,8 hPa 0,0 l/m 3,9 km/h (1 Bft) W-NW 292 9,2 C 11,9 C 3,4 km/h (1 Bft)
14.06.2013 11:55 10,8 C 88 % 1023,8 hPa 0,0 l/m 4,7 km/h (1 Bft) N 360 8,9 C 11,7 C 10,1 km/h (2 Bft)
14.06.2013 12:00 10,7 C 89 % 1023,8 hPa 0,0 l/m 4,5 km/h (1 Bft) N-NW 337 9,0 C 11,3 C 4,7 km/h (1 Bft)
14.06.2013 12:05 10,6 C 89 % 1023,7 hPa 0,0 l/m 4,7 km/h (1 Bft) N 360 8,9 C 11,4 C 5,1 km/h (1 Bft)
14.06.2013 12:10 10,8 C 89 % 1023,7 hPa 0,0 l/m 4,3 km/h (1 Bft) W-NW 292 9,1 C 11,5 C 6,9 km/h (2 Bft)
14.06.2013 12:15 11,1 C 89 % 1023,7 hPa 0,0 l/m 4,5 km/h (1 Bft) N-NW 337 9,4 C 11,7 C 4,8 km/h (1 Bft)
14.06.2013 12:20 11,7 C 88 % 1023,7 hPa 0,0 l/m 4,0 km/h (1 Bft) N-NW 337 9,8 C 12,6 C 6,8 km/h (2 Bft)
14.06.2013 12:25 12,2 C 87 % 1023,9 hPa 0,0 l/m 3,4 km/h (1 Bft) S-SO 157 10,1 C 13,2 C 3,9 km/h (1 Bft)
14.06.2013 12:30 12,7 C 87 % 1023,9 hPa 0,0 l/m 3,7 km/h (1 Bft) W 270 10,6 C 14,1 C 4,5 km/h (1 Bft)
14.06.2013 12:35 12,2 C 86 % 1023,9 hPa 0,0 l/m 3,9 km/h (1 Bft) N-NW 337 9,9 C 14,2 C 5,8 km/h (2 Bft)
14.06.2013 12:40 11,9 C 86 % 1023,9 hPa 0,0 l/m 4,2 km/h (1 Bft) N 360 9,6 C 13,7 C 3,9 km/h (1 Bft)
14.06.2013 12:45 11,8 C 86 % 1023,8 hPa 0,0 l/m 5,1 km/h (1 Bft) NW 315 9,5 C 13,4 C 6,8 km/h (2 Bft)
14.06.2013 12:50 11,7 C 85 % 1023,8 hPa 0,0 l/m 5,1 km/h (1 Bft) W 270 9,3 C 13,1 C 7,2 km/h (2 Bft)
14.06.2013 12:55 12,2 C 86 % 1023,8 hPa 0,0 l/m 5,0 km/h (1 Bft) N-NW 337 9,9 C 13,4 C 9,2 km/h (2 Bft)
14.06.2013 13:00 11,9 C 85 % 1023,8 hPa 0,0 l/m 4,7 km/h (1 Bft) W-SW 247 9,5 C 13,4 C 3,7 km/h (1 Bft)
14.06.2013 13:05 11,8 C 85 % 1023,8 hPa 0,0 l/m 4,3 km/h (1 Bft) NW 315 9,4 C 13,4 C 4,2 km/h (1 Bft)
14.06.2013 13:10 11,9 C 85 % 1023,8 hPa 0,0 l/m 4,5 km/h (1 Bft) W-NW 292 9,5 C 13,3 C 7,4 km/h (2 Bft)
14.06.2013 13:15 12,0 C 85 % 1023,8 hPa 0,0 l/m 4,2 km/h (1 Bft) SO 135 9,6 C 13,3 C 0,0 km/h (0 Bft)
14.06.2013 13:20 12,2 C 85 % 1023,8 hPa 0,0 l/m 3,2 km/h (1 Bft) N-NW 337 9,8 C 13,7 C 4,8 km/h (1 Bft)
14.06.2013 13:25 12,3 C 84 % 1023,5 hPa 0,0 l/m 3,2 km/h (1 Bft) N 360 9,7 C 13,8 C 6,9 km/h (2 Bft)
14.06.2013 13:30 12,3 C 85 % 1023,5 hPa 0,0 l/m 4,3 km/h (1 Bft) N-NW 337 9,9 C 13,8 C 6,0 km/h (2 Bft)
14.06.2013 13:35 12,5 C 84 % 1023,5 hPa 0,0 l/m 4,7 km/h (1 Bft) N-NW 337 9,9 C 13,9 C 3,5 km/h (1 Bft)
14.06.2013 13:40 12,6 C 81 % 1023,5 hPa 0,0 l/m 4,8 km/h (1 Bft) N-NW 337 9,4 C 14,4 C 8,2 km/h (2 Bft)
14.06.2013 13:45 12,9 C 83 % 1023,4 hPa 0,0 l/m 4,7 km/h (1 Bft) W 270 10,1 C 14,6 C 4,8 km/h (1 Bft)
14.06.2013 13:50 13,0 C 83 % 1023,4 hPa 0,0 l/m 4,5 km/h (1 Bft) W-NW 292 10,2 C 14,5 C 6,1 km/h (2 Bft)
14.06.2013 13:55 13,0 C 81 % 1023,4 hPa 0,0 l/m 4,8 km/h (1 Bft) N-NW 337 9,8 C 14,6 C 10,9 km/h (2 Bft)
14.06.2013 14:00 13,1 C 81 % 1023,4 hPa 0,0 l/m 5,3 km/h (1 Bft) N-NW 337 9,9 C 14,8 C 3,1 km/h (1 Bft)
14.06.2013 14:05 13,3 C 82 % 1023,3 hPa 0,0 l/m 5,8 km/h (2 Bft) NW 315 10,3 C 14,9 C 8,7 km/h (2 Bft)
14.06.2013 14:11 14,4 C 80 % 1023,3 hPa 0,0 l/m 5,3 km/h (1 Bft) W-NW 292 11,0 C 15,2 C 4,3 km/h (1 Bft)
14.06.2013 14:15 14,7 C 80 % 1023,3 hPa 0,0 l/m 4,7 km/h (1 Bft) NW 315 11,3 C 16,1 C 4,8 km/h (1 Bft)
14.06.2013 14:20 14,2 C 79 % 1023,3 hPa 0,0 l/m 4,2 km/h (1 Bft) N 360 10,6 C 16,3 C 8,4 km/h (2 Bft)
14.06.2013 14:25 14,0 C 79 % 1022,9 hPa 0,0 l/m 4,8 km/h (1 Bft) NO 45 10,4 C 16,2 C 3,1 km/h (1 Bft)
14.06.2013 14:30 14,0 C 79 % 1022,9 hPa 0,0 l/m 5,3 km/h (1 Bft) W 270 10,4 C 16,0 C 4,0 km/h (1 Bft)
14.06.2013 14:35 13,5 C 79 % 1022,9 hPa 0,0 l/m 5,1 km/h (1 Bft) SO 135 9,9 C 15,6 C 3,7 km/h (1 Bft)
14.06.2013 14:40 13,5 C 79 % 1022,9 hPa 0,0 l/m 5,5 km/h (1 Bft) NW 315 9,9 C 15,1 C 10,1 km/h (2 Bft)
14.06.2013 14:45 13,5 C 80 % 1023,0 hPa 0,0 l/m 5,1 km/h (1 Bft) W 270 10,1 C 14,8 C 5,8 km/h (2 Bft)
14.06.2013 14:50 13,3 C 80 % 1023,0 hPa 0,0 l/m 4,0 km/h (1 Bft) N 360 9,9 C 14,6 C 10,1 km/h (2 Bft)
14.06.2013 14:55 13,0 C 79 % 1023,0 hPa 0,0 l/m 4,8 km/h (1 Bft) W 270 9,4 C 14,3 C 10,5 km/h (2 Bft)
14.06.2013 15:00 12,9 C 81 % 1023,0 hPa 0,0 l/m 5,8 km/h (2 Bft) N-NW 337 9,7 C 13,8 C 3,1 km/h (1 Bft)
14.06.2013 15:05 13,0 C 80 % 1022,2 hPa 0,0 l/m 5,0 km/h (1 Bft) W-NW 292 9,6 C 13,8 C 11,9 km/h (2 Bft)
14.06.2013 15:10 13,1 C 80 % 1022,2 hPa 0,0 l/m 5,0 km/h (1 Bft) NW 315 9,7 C 13,8 C 6,4 km/h (2 Bft)
14.06.2013 15:15 13,1 C 81 % 1022,2 hPa 0,0 l/m 5,5 km/h (1 Bft) W 270 9,9 C 13,7 C 5,5 km/h (1 Bft)
14.06.2013 15:20 12,7 C 81 % 1022,2 hPa 0,0 l/m 5,0 km/h (1 Bft) N-NW 337 9,5 C 13,6 C 7,6 km/h (2 Bft)
14.06.2013 15:25 12,6 C 82 % 1022,2 hPa 0,0 l/m 5,0 km/h (1 Bft) N 360 9,6 C 13,4 C 8,5 km/h (2 Bft)
14.06.2013 15:30 12,6 C 83 % 1022,2 hPa 0,0 l/m 4,0 km/h (1 Bft) N 360 9,8 C 13,4 C 5,0 km/h (1 Bft)
14.06.2013 15:35 12,7 C 83 % 1022,2 hPa 0,0 l/m 3,5 km/h (1 Bft) NW 315 9,9 C 13,3 C 5,5 km/h (1 Bft)
14.06.2013 15:40 12,7 C 83 % 1022,2 hPa 0,0 l/m 4,2 km/h (1 Bft) N 360 9,9 C 13,2 C 4,8 km/h (1 Bft)
14.06.2013 15:45 12,8 C 83 % 1022,1 hPa 0,0 l/m 4,3 km/h (1 Bft) N-NW 337 10,0 C 13,3 C 7,2 km/h (2 Bft)
14.06.2013 15:50 12,9 C 83 % 1022,1 hPa 0,0 l/m 4,7 km/h (1 Bft) NW 315 10,1 C 13,3 C 9,3 km/h (2 Bft)
14.06.2013 15:55 12,8 C 83 % 1022,1 hPa 0,0 l/m 5,3 km/h (1 Bft) W-SW 247 10,0 C 13,4 C 5,5 km/h (1 Bft)
14.06.2013 16:00 12,9 C 83 % 1022,1 hPa 0,0 l/m 5,1 km/h (1 Bft) W-NW 292 10,1 C 13,4 C 6,9 km/h (2 Bft)
14.06.2013 16:05 12,9 C 83 % 1021,8 hPa 0,0 l/m 5,1 km/h (1 Bft) NW 315 10,1 C 13,5 C 8,4 km/h (2 Bft)
14.06.2013 16:10 12,8 C 84 % 1021,8 hPa 0,0 l/m 5,6 km/h (1 Bft) NO 45 10,2 C 13,3 C 4,5 km/h (1 Bft)
14.06.2013 16:15 12,8 C 84 % 1021,8 hPa 0,0 l/m 5,5 km/h (1 Bft) N-NW 337 10,2 C 13,2 C 6,4 km/h (2 Bft)
14.06.2013 16:20 12,5 C 85 % 1021,8 hPa 0,0 l/m 5,8 km/h (2 Bft) O-NO 67 10,0 C 13,1 C 9,3 km/h (2 Bft)
14.06.2013 16:25 12,4 C 85 % 1021,5 hPa 0,0 l/m 6,6 km/h (2 Bft) S 180 9,9 C 12,7 C 11,1 km/h (2 Bft)
14.06.2013 16:30 12,6 C 85 % 1021,5 hPa 0,0 l/m 5,5 km/h (1 Bft) N-NW 337 10,1 C 13,0 C 5,3 km/h (1 Bft)
14.06.2013 16:35 12,3 C 86 % 1021,5 hPa 0,0 l/m 5,5 km/h (1 Bft) W 270 10,0 C 12,8 C 5,0 km/h (1 Bft)
14.06.2013 16:40 12,4 C 86 % 1021,5 hPa 0,0 l/m 5,5 km/h (1 Bft) N-NW 337 10,1 C 12,7 C 6,3 km/h (2 Bft)
14.06.2013 16:45 12,8 C 86 % 1021,4 hPa 0,0 l/m 5,0 km/h (1 Bft) N 360 10,5 C 12,7 C 6,9 km/h (2 Bft)
14.06.2013 16:50 12,8 C 86 % 1021,4 hPa 0,0 l/m 4,2 km/h (1 Bft) W 270 10,5 C 12,9 C 5,6 km/h (1 Bft)
14.06.2013 16:55 12,6 C 86 % 1021,4 hPa 0,0 l/m 4,0 km/h (1 Bft) W-SW 247 10,3 C 12,9 C 1,9 km/h (1 Bft)
14.06.2013 17:00 12,7 C 86 % 1021,4 hPa 0,0 l/m 4,0 km/h (1 Bft) W-NW 292 10,4 C 12,9 C 4,3 km/h (1 Bft)
14.06.2013 17:05 13,1 C 85 % 1021,2 hPa 0,0 l/m 4,7 km/h (1 Bft) N-NO 22 10,6 C 13,3 C 5,3 km/h (1 Bft)
14.06.2013 17:10 13,3 C 84 % 1021,2 hPa 0,0 l/m 4,5 km/h (1 Bft) N 360 10,7 C 13,7 C 11,4 km/h (2 Bft)
14.06.2013 17:15 13,5 C 83 % 1021,2 hPa 0,0 l/m 4,7 km/h (1 Bft) W 270 10,7 C 14,1 C 5,8 km/h (2 Bft)
14.06.2013 17:20 13,5 C 83 % 1021,2 hPa 0,0 l/m 5,1 km/h (1 Bft) N 360 10,7 C 14,4 C 10,3 km/h (2 Bft)
14.06.2013 17:25 13,3 C 83 % 1021,1 hPa 0,0 l/m 5,0 km/h (1 Bft) NW 315 10,5 C 14,2 C 7,7 km/h (2 Bft)
14.06.2013 17:30 13,4 C 83 % 1021,1 hPa 0,0 l/m 5,0 km/h (1 Bft) N-NW 337 10,6 C 14,2 C 6,0 km/h (2 Bft)
14.06.2013 17:35 13,1 C 83 % 1021,1 hPa 0,0 l/m 5,0 km/h (1 Bft) N-NW 337 10,3 C 14,1 C 4,2 km/h (1 Bft)
14.06.2013 17:40 13,3 C 84 % 1021,1 hPa 0,0 l/m 5,5 km/h (1 Bft) N 360 10,7 C 13,9 C 7,7 km/h (2 Bft)
14.06.2013 17:45 13,1 C 84 % 1020,8 hPa 0,0 l/m 5,1 km/h (1 Bft) N 360 10,5 C 13,9 C 6,1 km/h (2 Bft)
14.06.2013 17:50 13,1 C 84 % 1020,8 hPa 0,0 l/m 4,3 km/h (1 Bft) O-SO 112 10,5 C 13,8 C 3,2 km/h (1 Bft)
14.06.2013 17:55 13,1 C 84 % 1020,8 hPa 0,0 l/m 4,2 km/h (1 Bft) N-NW 337 10,5 C 13,8 C 4,3 km/h (1 Bft)
14.06.2013 18:00 13,1 C 84 % 1020,8 hPa 0,0 l/m 4,5 km/h (1 Bft) N 360 10,5 C 13,8 C 4,7 km/h (1 Bft)
14.06.2013 18:05 13,0 C 85 % 1020,5 hPa 0,0 l/m 4,3 km/h (1 Bft) O-SO 112 10,5 C 13,7 C 1,6 km/h (1 Bft)
14.06.2013 18:10 13,2 C 85 % 1020,5 hPa 0,0 l/m 4,7 km/h (1 Bft) N 360 10,7 C 13,8 C 6,8 km/h (2 Bft)
14.06.2013 18:15 13,1 C 85 % 1020,5 hPa 0,0 l/m 4,7 km/h (1 Bft) W-NW 292 10,6 C 13,7 C 5,8 km/h (2 Bft)
14.06.2013 18:20 12,9 C 85 % 1020,5 hPa 0,0 l/m 4,8 km/h (1 Bft) N 360 10,4 C 13,6 C 8,7 km/h (2 Bft)
14.06.2013 18:25 12,9 C 86 % 1020,6 hPa 0,0 l/m 4,7 km/h (1 Bft) N 360 10,6 C 13,5 C 8,4 km/h (2 Bft)
14.06.2013 18:30 13,0 C 85 % 1020,6 hPa 0,0 l/m 4,0 km/h (1 Bft) N-NW 337 10,5 C 13,4 C 9,5 km/h (2 Bft)
14.06.2013 18:35 13,0 C 86 % 1020,6 hPa 0,0 l/m 4,0 km/h (1 Bft) N-NW 337 10,7 C 13,4 C 4,5 km/h (1 Bft)
14.06.2013 18:40 13,0 C 85 % 1020,6 hPa 0,0 l/m 4,2 km/h (1 Bft) W-NW 292 10,5 C 13,4 C 3,1 km/h (1 Bft)
14.06.2013 18:45 13,0 C 85 % 1020,6 hPa 0,0 l/m 3,4 km/h (1 Bft) N 360 10,5 C 13,4 C 4,2 km/h (1 Bft)
14.06.2013 18:50 13,0 C 86 % 1020,6 hPa 0,0 l/m 2,6 km/h (1 Bft) NW 315 10,7 C 13,4 C 1,9 km/h (1 Bft)
14.06.2013 18:55 12,9 C 86 % 1020,6 hPa 0,0 l/m 2,7 km/h (1 Bft) NW 315 10,6 C 13,4 C 4,3 km/h (1 Bft)
14.06.2013 19:00 12,7 C 86 % 1020,6 hPa 0,0 l/m 3,1 km/h (1 Bft) NW 315 10,4 C 13,1 C 2,3 km/h (1 Bft)
14.06.2013 19:05 12,7 C 87 % 1020,2 hPa 0,0 l/m 3,5 km/h (1 Bft) N 360 10,6 C 12,9 C 2,9 km/h (1 Bft)
14.06.2013 19:10 12,7 C 87 % 1020,2 hPa 0,0 l/m 2,1 km/h (1 Bft) NO 45 10,6 C 12,9 C 5,6 km/h (1 Bft)
14.06.2013 19:15 12,7 C 87 % 1020,2 hPa 0,0 l/m 2,3 km/h (1 Bft) O-SO 112 10,6 C 12,9 C 3,1 km/h (1 Bft)
14.06.2013 19:20 12,7 C 87 % 1020,2 hPa 0,0 l/m 2,7 km/h (1 Bft) NO 45 10,6 C 12,9 C 1,8 km/h (1 Bft)
14.06.2013 19:25 12,7 C 87 % 1020,1 hPa 0,0 l/m 2,3 km/h (1 Bft) N 360 10,6 C 12,9 C 2,9 km/h (1 Bft)
14.06.2013 19:30 12,6 C 87 % 1020,1 hPa 0,0 l/m 1,8 km/h (1 Bft) N 360 10,5 C 12,9 C 3,9 km/h (1 Bft)
14.06.2013 19:35 12,7 C 87 % 1020,1 hPa 0,0 l/m 2,4 km/h (1 Bft) N-NW 337 10,6 C 12,9 C 7,1 km/h (2 Bft)
14.06.2013 19:40 12,7 C 88 % 1020,1 hPa 0,0 l/m 3,1 km/h (1 Bft) N 360 10,8 C 12,9 C 3,9 km/h (1 Bft)
14.06.2013 19:45 12,7 C 88 % 1020,1 hPa 0,0 l/m 2,9 km/h (1 Bft) W-NW 292 10,8 C 12,9 C 4,0 km/h (1 Bft)
14.06.2013 19:50 12,7 C 88 % 1020,1 hPa 0,0 l/m 2,4 km/h (1 Bft) O-NO 67 10,8 C 12,9 C 0,0 km/h (0 Bft)
14.06.2013 19:55 12,6 C 88 % 1020,1 hPa 0,0 l/m 2,3 km/h (1 Bft) N 360 10,7 C 12,9 C 5,3 km/h (1 Bft)
14.06.2013 20:00 12,6 C 88 % 1020,1 hPa 0,0 l/m 2,9 km/h (1 Bft) N-NW 337 10,7 C 12,8 C 3,4 km/h (1 Bft)
14.06.2013 20:05 12,6 C 88 % 1019,9 hPa 0,0 l/m 3,4 km/h (1 Bft) W-NW 292 10,7 C 12,7 C 4,3 km/h (1 Bft)
14.06.2013 20:10 12,6 C 88 % 1019,9 hPa 0,0 l/m 1,8 km/h (1 Bft) NO 45 10,7 C 12,7 C 3,4 km/h (1 Bft)
14.06.2013 20:15 12,6 C 88 % 1019,9 hPa 0,0 l/m 1,9 km/h (1 Bft) W-SW 247 10,7 C 12,7 C 0,0 km/h (0 Bft)
14.06.2013 20:20 12,6 C 88 % 1019,9 hPa 0,0 l/m 2,7 km/h (1 Bft) S-SW 202 10,7 C 12,7 C 1,9 km/h (1 Bft)
14.06.2013 20:25 12,6 C 89 % 1019,9 hPa 0,0 l/m 2,4 km/h (1 Bft) W-NW 292 10,8 C 12,7 C 5,0 km/h (1 Bft)
14.06.2013 20:30 12,5 C 89 % 1019,9 hPa 0,0 l/m 1,8 km/h (1 Bft) N-NW 337 10,7 C 12,6 C 2,6 km/h (1 Bft)
14.06.2013 20:35 12,5 C 89 % 1019,9 hPa 0,0 l/m 1,9 km/h (1 Bft) W-NW 292 10,7 C 12,6 C 0,0 km/h (0 Bft)
14.06.2013 20:40 12,5 C 89 % 1019,9 hPa 0,0 l/m 1,6 km/h (1 Bft) N 360 10,7 C 12,6 C 3,9 km/h (1 Bft)
14.06.2013 20:45 12,5 C 88 % 1020,0 hPa 0,0 l/m 1,3 km/h (1 Bft) NW 315 10,6 C 12,6 C 2,9 km/h (1 Bft)
14.06.2013 20:50 12,5 C 89 % 1020,0 hPa 0,0 l/m 1,4 km/h (1 Bft) N-NW 337 10,7 C 12,6 C 0,0 km/h (0 Bft)
14.06.2013 20:55 12,5 C 89 % 1020,0 hPa 0,0 l/m 1,1 km/h (1 Bft) W-NW 292 10,7 C 12,6 C 1,6 km/h (1 Bft)
14.06.2013 21:00 12,5 C 88 % 1020,0 hPa 0,0 l/m 1,1 km/h (1 Bft) W-SW 247 10,6 C 12,6 C 2,7 km/h (1 Bft)
14.06.2013 21:05 12,5 C 88 % 1020,1 hPa 0,0 l/m 1,0 km/h (0 Bft) S 180 10,6 C 12,6 C 1,8 km/h (1 Bft)
14.06.2013 21:11 12,5 C 88 % 1020,1 hPa 0,0 l/m 1,4 km/h (1 Bft) S 180 10,6 C 12,5 C 2,1 km/h (1 Bft)
14.06.2013 21:15 12,5 C 88 % 1020,1 hPa 0,0 l/m 1,3 km/h (1 Bft) SO 135 10,6 C 12,5 C 2,1 km/h (1 Bft)
14.06.2013 21:20 12,5 C 88 % 1020,1 hPa 0,0 l/m 1,8 km/h (1 Bft) S-SO 157 10,6 C 12,5 C 4,8 km/h (1 Bft)
14.06.2013 21:25 12,5 C 88 % 1021,0 hPa 0,0 l/m 2,9 km/h (1 Bft) S-SW 202 10,6 C 12,5 C 3,7 km/h (1 Bft)
14.06.2013 21:30 12,5 C 89 % 1021,0 hPa 0,0 l/m 3,7 km/h (1 Bft) W-SW 247 10,7 C 12,4 C 3,2 km/h (1 Bft)
14.06.2013 21:35 12,4 C 89 % 1021,0 hPa 0,0 l/m 2,6 km/h (1 Bft) W-SW 247 10,6 C 12,4 C 2,4 km/h (1 Bft)
14.06.2013 21:40 12,4 C 88 % 1021,0 hPa 0,0 l/m 1,3 km/h (1 Bft) O-SO 112 10,5 C 12,4 C 2,4 km/h (1 Bft)
14.06.2013 21:45 12,3 C 89 % 1020,6 hPa 0,0 l/m 1,6 km/h (1 Bft) N 360 10,5 C 12,3 C 6,6 km/h (2 Bft)
14.06.2013 21:50 12,1 C 90 % 1020,6 hPa 0,0 l/m 2,7 km/h (1 Bft) W-SW 247 10,5 C 12,2 C 2,1 km/h (1 Bft)
14.06.2013 21:55 12,0 C 91 % 1020,6 hPa 0,0 l/m 3,2 km/h (1 Bft) NO 45 10,6 C 12,1 C 3,4 km/h (1 Bft)
14.06.2013 22:00 12,0 C 91 % 1020,6 hPa 0,0 l/m 1,9 km/h (1 Bft) O-SO 112 10,6 C 11,9 C 0,0 km/h (0 Bft)
14.06.2013 22:05 12,0 C 91 % 1020,7 hPa 0,0 l/m 1,3 km/h (1 Bft) O-SO 112 10,6 C 11,9 C 0,0 km/h (0 Bft)
14.06.2013 22:10 12,1 C 91 % 1020,7 hPa 0,0 l/m 0,3 km/h (0 Bft) S-SW 202 10,7 C 11,9 C 0,0 km/h (0 Bft)
14.06.2013 22:15 12,1 C 91 % 1020,7 hPa 0,0 l/m 0,2 km/h (0 Bft) O-SO 112 10,7 C 12,0 C 0,0 km/h (0 Bft)
14.06.2013 22:20 12,1 C 90 % 1020,7 hPa 0,0 l/m 0,2 km/h (0 Bft) S-SO 157 10,5 C 12,0 C 1,6 km/h (1 Bft)
14.06.2013 22:25 12,1 C 90 % 1021,2 hPa 0,0 l/m 0,5 km/h (0 Bft) S 180 10,5 C 12,0 C 0,0 km/h (0 Bft)
14.06.2013 22:30 12,1 C 91 % 1021,2 hPa 0,0 l/m 1,0 km/h (0 Bft) O-NO 67 10,7 C 12,0 C 0,0 km/h (0 Bft)
14.06.2013 22:35 12,1 C 91 % 1021,2 hPa 0,0 l/m 0,6 km/h (0 Bft) S 180 10,7 C 12,0 C 1,8 km/h (1 Bft)
14.06.2013 22:40 12,1 C 91 % 1021,2 hPa 0,0 l/m 1,1 km/h (1 Bft) S 180 10,7 C 12,1 C 2,3 km/h (1 Bft)
14.06.2013 22:45 12,1 C 91 % 1021,1 hPa 0,0 l/m 1,3 km/h (1 Bft) N-NO 22 10,7 C 12,1 C 2,3 km/h (1 Bft)
14.06.2013 22:50 12,0 C 91 % 1021,1 hPa 0,0 l/m 1,6 km/h (1 Bft) W-NW 292 10,6 C 12,0 C 2,6 km/h (1 Bft)
14.06.2013 22:55 11,9 C 92 % 1021,1 hPa 0,7 l/m 1,9 km/h (1 Bft) N 360 10,6 C 11,9 C 2,7 km/h (1 Bft)
14.06.2013 23:00 11,8 C 92 % 1021,1 hPa 0,0 l/m 2,3 km/h (1 Bft) N-NO 22 10,5 C 11,9 C 3,4 km/h (1 Bft)
14.06.2013 23:05 11,7 C 92 % 1020,4 hPa 0,0 l/m 1,9 km/h (1 Bft) W-NW 292 10,4 C 11,7 C 2,6 km/h (1 Bft)
14.06.2013 23:10 11,7 C 93 % 1020,4 hPa 0,0 l/m 1,3 km/h (1 Bft) S 180 10,6 C 11,7 C 0,0 km/h (0 Bft)
14.06.2013 23:15 11,7 C 93 % 1020,4 hPa 0,0 l/m 1,4 km/h (1 Bft) NO 45 10,6 C 11,7 C 2,7 km/h (1 Bft)
14.06.2013 23:20 11,7 C 93 % 1020,4 hPa 0,0 l/m 2,1 km/h (1 Bft) N-NW 337 10,6 C 11,7 C 5,6 km/h (1 Bft)
14.06.2013 23:25 11,8 C 93 % 1020,1 hPa 0,0 l/m 2,9 km/h (1 Bft) W-NW 292 10,7 C 11,7 C 4,3 km/h (1 Bft)
14.06.2013 23:30 11,8 C 94 % 1020,1 hPa 0,0 l/m 2,9 km/h (1 Bft) W-NW 292 10,9 C 11,8 C 3,9 km/h (1 Bft)
14.06.2013 23:35 11,8 C 94 % 1020,1 hPa 0,0 l/m 3,1 km/h (1 Bft) N 360 10,9 C 11,8 C 2,1 km/h (1 Bft)
14.06.2013 23:40 11,7 C 94 % 1020,1 hPa 0,0 l/m 2,1 km/h (1 Bft) W 270 10,8 C 11,8 C 1,6 km/h (1 Bft)
14.06.2013 23:45 11,7 C 94 % 1020,2 hPa 0,0 l/m 0,6 km/h (0 Bft) NO 45 10,8 C 11,7 C 2,7 km/h (1 Bft)
14.06.2013 23:50 11,8 C 94 % 1020,2 hPa 0,0 l/m 0,6 km/h (0 Bft) S 180 10,9 C 11,7 C 0,0 km/h (0 Bft)
14.06.2013 23:55 11,8 C 94 % 1020,2 hPa 0,0 l/m 0,8 km/h (0 Bft) W 270 10,9 C 11,8 C 0,0 km/h (0 Bft)
_ Min-Zeit 08:25 01:00 00:20 - 09:20 - - 09:00 02:00 23:55
Minimum _ 8,9 C 76 % 1019,0 hPa - 0,0 km/h (0 Bft) - - 8,1 C 7,4 C 0,0 km/h (0 Bft)
_ Max-Zeit 00:55 09:25 10:40 01:30 02:00 - - 01:10 14:20 01:40
Maximum _ 17,7 C 95 % 1025,1 hPa 1,4 l/m 14,5 km/h
O-SO (3 Bft)
- - 13,4 C 16,3 C 31,7 km/h
S (5 Bft)
Durchschnitt _ 12,2 C 89 % 1022,5 hPa #8,9 l/m 3,7 km/h (1 Bft) N-NW - 10,4 C 12,4 C 4,8 km/h (1 Bft)